Terminal Aerodrome Forecast
Issued by NWS Twin Cities, MN

Home | Current Version | Previous Version | Graphics & Text | Print | Product List | Glossary On
Versions: 1 2 3 4 5 6 7 8 9 10 11 12 13 14 15 16 17 18 19 20 21 22 23 24 25 26 27 28 29 30 31 32 33
345
FTUS43 KMPX 050409 AAC
TAFMSP
TAF AMD
KMSP 050409Z 0504/0606 25006KT P6SM FEW025 OVC030
     FM050500 23006KT P6SM SCT035
     FM050800 19005KT 4SM BR FEW100
     FM051200 13006KT P6SM BKN150
     FM051500 14009KT P6SM OVC090
     FM051800 18013G22KT P6SM SCT035 OVC090
     FM060100 22009KT P6SM BKN025 OVC035=

USA.gov is the U.S. government's official web portal to all federal, state and local government web resources and services.